sensor_id;sensor_type;location;lat;lon;timestamp;P1;durP1;ratioP1;P2;durP2;ratioP2
66272;SDS011;58450;52.150;4.466;2023-04-05T00:00:27;12.63;;;7.88;;
66272;SDS011;58450;52.150;4.466;2023-04-05T00:02:56;14.18;;;7.97;;
66272;SDS011;58450;52.150;4.466;2023-04-05T00:05:26;15.07;;;8.65;;
66272;SDS011;58450;52.150;4.466;2023-04-05T00:07:56;15.45;;;7.97;;
66272;SDS011;58450;52.150;4.466;2023-04-05T00:10:25;15.40;;;8.93;;
66272;SDS011;58450;52.150;4.466;2023-04-05T00:12:53;14.10;;;8.05;;
66272;SDS011;58450;52.150;4.466;2023-04-05T00:15:21;13.57;;;8.13;;
66272;SDS011;58450;52.150;4.466;2023-04-05T00:17:48;13.45;;;8.35;;
66272;SDS011;58450;52.150;4.466;2023-04-05T00:20:18;15.63;;;8.55;;
66272;SDS011;58450;52.150;4.466;2023-04-05T00:22:47;13.70;;;7.85;;
66272;SDS011;58450;52.150;4.466;2023-04-05T00:25:15;12.00;;;7.85;;
66272;SDS011;58450;52.150;4.466;2023-04-05T00:27:43;15.82;;;8.95;;
66272;SDS011;58450;52.150;4.466;2023-04-05T00:30:11;13.98;;;8.30;;
66272;SDS011;58450;52.150;4.466;2023-04-05T00:32:46;14.82;;;8.63;;
66272;SDS011;58450;52.150;4.466;2023-04-05T00:35:14;14.00;;;8.05;;
66272;SDS011;58450;52.150;4.466;2023-04-05T00:37:42;15.15;;;8.40;;
66272;SDS011;58450;52.150;4.466;2023-04-05T00:40:11;12.35;;;7.80;;
66272;SDS011;58450;52.150;4.466;2023-04-05T00:42:38;12.95;;;7.63;;
66272;SDS011;58450;52.150;4.466;2023-04-05T00:45:06;12.98;;;7.80;;
66272;SDS011;58450;52.150;4.466;2023-04-05T00:47:34;15.65;;;8.18;;
66272;SDS011;58450;52.150;4.466;2023-04-05T00:50:02;14.07;;;8.18;;
66272;SDS011;58450;52.150;4.466;2023-04-05T00:52:34;13.32;;;8.02;;
66272;SDS011;58450;52.150;4.466;2023-04-05T00:55:02;13.80;;;7.72;;
66272;SDS011;58450;52.150;4.466;2023-04-05T00:57:34;14.93;;;7.95;;
66272;SDS011;58450;52.150;4.466;2023-04-05T01:00:04;13.98;;;7.80;;
66272;SDS011;58450;52.150;4.466;2023-04-05T01:02:39;12.65;;;7.53;;
66272;SDS011;58450;52.150;4.466;2023-04-05T01:05:14;13.60;;;7.78;;
66272;SDS011;58450;52.150;4.466;2023-04-05T01:07:58;14.25;;;7.60;;
66272;SDS011;58450;52.150;4.466;2023-04-05T01:10:34;15.73;;;8.30;;
66272;SDS011;58450;52.150;4.466;2023-04-05T01:13:09;12.98;;;7.72;;
66272;SDS011;58450;52.150;4.466;2023-04-05T01:15:37;14.85;;;7.55;;
66272;SDS011;58450;52.150;4.466;2023-04-05T01:18:04;14.88;;;7.95;;
66272;SDS011;58450;52.150;4.466;2023-04-05T01:20:36;12.60;;;7.05;;
66272;SDS011;58450;52.150;4.466;2023-04-05T01:23:25;13.13;;;7.38;;
66272;SDS011;58450;52.150;4.466;2023-04-05T01:26:14;12.48;;;7.00;;
66272;SDS011;58450;52.150;4.466;2023-04-05T01:29:26;12.38;;;7.10;;
66272;SDS011;58450;52.150;4.466;2023-04-05T01:35:27;11.57;;;6.90;;
66272;SDS011;58450;52.150;4.466;2023-04-05T01:38:03;12.40;;;7.32;;
66272;SDS011;58450;52.150;4.466;2023-04-05T01:40:35;13.57;;;6.65;;
66272;SDS011;58450;52.150;4.466;2023-04-05T01:43:11;11.57;;;6.80;;
66272;SDS011;58450;52.150;4.466;2023-04-05T01:45:41;12.00;;;6.72;;
66272;SDS011;58450;52.150;4.466;2023-04-05T01:48:10;15.05;;;7.10;;
66272;SDS011;58450;52.150;4.466;2023-04-05T01:50:38;10.45;;;6.20;;
66272;SDS011;58450;52.150;4.466;2023-04-05T01:53:05;11.43;;;6.07;;
66272;SDS011;58450;52.150;4.466;2023-04-05T01:55:33;12.50;;;6.85;;
66272;SDS011;58450;52.150;4.466;2023-04-05T01:58:01;11.15;;;6.13;;
66272;SDS011;58450;52.150;4.466;2023-04-05T02:00:29;13.10;;;6.78;;
66272;SDS011;58450;52.150;4.466;2023-04-05T02:02:58;12.40;;;6.28;;
66272;SDS011;58450;52.150;4.466;2023-04-05T02:05:26;11.45;;;5.85;;
66272;SDS011;58450;52.150;4.466;2023-04-05T02:07:53;10.45;;;6.13;;
66272;SDS011;58450;52.150;4.466;2023-04-05T02:10:21;11.40;;;6.13;;
66272;SDS011;58450;52.150;4.466;2023-04-05T02:12:49;12.20;;;5.80;;
66272;SDS011;58450;52.150;4.466;2023-04-05T02:15:16;10.55;;;5.97;;
66272;SDS011;58450;52.150;4.466;2023-04-05T02:17:44;11.50;;;5.97;;
66272;SDS011;58450;52.150;4.466;2023-04-05T02:20:13;11.00;;;6.22;;
66272;SDS011;58450;52.150;4.466;2023-04-05T02:22:41;10.52;;;5.70;;
66272;SDS011;58450;52.150;4.466;2023-04-05T02:25:10;11.88;;;5.95;;
66272;SDS011;58450;52.150;4.466;2023-04-05T02:27:38;11.35;;;6.38;;
66272;SDS011;58450;52.150;4.466;2023-04-05T02:30:06;9.88;;;5.78;;
66272;SDS011;58450;52.150;4.466;2023-04-05T02:32:35;10.43;;;6.22;;
66272;SDS011;58450;52.150;4.466;2023-04-05T02:35:02;10.77;;;5.90;;
66272;SDS011;58450;52.150;4.466;2023-04-05T02:37:32;13.25;;;6.35;;
66272;SDS011;58450;52.150;4.466;2023-04-05T02:40:00;10.50;;;5.75;;
66272;SDS011;58450;52.150;4.466;2023-04-05T02:42:29;12.52;;;6.25;;
66272;SDS011;58450;52.150;4.466;2023-04-05T02:44:56;11.73;;;6.03;;
66272;SDS011;58450;52.150;4.466;2023-04-05T02:47:24;11.38;;;6.13;;
66272;SDS011;58450;52.150;4.466;2023-04-05T02:49:51;12.85;;;6.15;;
66272;SDS011;58450;52.150;4.466;2023-04-05T02:52:19;10.75;;;5.90;;
66272;SDS011;58450;52.150;4.466;2023-04-05T02:54:48;10.02;;;5.53;;
66272;SDS011;58450;52.150;4.466;2023-04-05T02:57:17;11.60;;;6.22;;
66272;SDS011;58450;52.150;4.466;2023-04-05T02:59:44;11.48;;;6.22;;
66272;SDS011;58450;52.150;4.466;2023-04-05T03:02:12;11.32;;;5.80;;
66272;SDS011;58450;52.150;4.466;2023-04-05T03:04:39;12.77;;;5.82;;
66272;SDS011;58450;52.150;4.466;2023-04-05T03:07:09;10.23;;;6.07;;
66272;SDS011;58450;52.150;4.466;2023-04-05T03:09:39;10.43;;;5.65;;
66272;SDS011;58450;52.150;4.466;2023-04-05T03:12:09;10.82;;;5.65;;
66272;SDS011;58450;52.150;4.466;2023-04-05T03:14:36;11.57;;;6.13;;
66272;SDS011;58450;52.150;4.466;2023-04-05T03:17:05;11.30;;;6.10;;
66272;SDS011;58450;52.150;4.466;2023-04-05T03:19:33;10.65;;;5.82;;
66272;SDS011;58450;52.150;4.466;2023-04-05T03:22:01;10.80;;;5.65;;
66272;SDS011;58450;52.150;4.466;2023-04-05T03:24:28;10.85;;;6.25;;
66272;SDS011;58450;52.150;4.466;2023-04-05T03:26:59;11.52;;;6.07;;
66272;SDS011;58450;52.150;4.466;2023-04-05T03:29:30;10.93;;;5.38;;
66272;SDS011;58450;52.150;4.466;2023-04-05T03:31:57;11.45;;;5.90;;
66272;SDS011;58450;52.150;4.466;2023-04-05T03:34:25;10.65;;;6.30;;
66272;SDS011;58450;52.150;4.466;2023-04-05T03:36:53;10.88;;;6.13;;
66272;SDS011;58450;52.150;4.466;2023-04-05T03:39:21;13.63;;;6.30;;
66272;SDS011;58450;52.150;4.466;2023-04-05T03:41:48;12.93;;;6.35;;
66272;SDS011;58450;52.150;4.466;2023-04-05T03:44:17;10.75;;;5.63;;
66272;SDS011;58450;52.150;4.466;2023-04-05T03:46:46;10.13;;;6.05;;
66272;SDS011;58450;52.150;4.466;2023-04-05T03:49:13;11.15;;;6.18;;
66272;SDS011;58450;52.150;4.466;2023-04-05T03:51:41;12.68;;;6.20;;
66272;SDS011;58450;52.150;4.466;2023-04-05T03:54:08;10.73;;;6.28;;
66272;SDS011;58450;52.150;4.466;2023-04-05T03:56:36;11.00;;;6.15;;
66272;SDS011;58450;52.150;4.466;2023-04-05T03:59:04;11.25;;;6.28;;
66272;SDS011;58450;52.150;4.466;2023-04-05T04:01:31;12.15;;;6.30;;
66272;SDS011;58450;52.150;4.466;2023-04-05T04:04:00;11.23;;;5.90;;
66272;SDS011;58450;52.150;4.466;2023-04-05T04:06:29;10.70;;;5.68;;
66272;SDS011;58450;52.150;4.466;2023-04-05T04:08:57;9.48;;;5.60;;
66272;SDS011;58450;52.150;4.466;2023-04-05T04:11:24;12.90;;;6.55;;
66272;SDS011;58450;52.150;4.466;2023-04-05T04:13:52;13.50;;;6.90;;
66272;SDS011;58450;52.150;4.466;2023-04-05T04:16:19;11.10;;;6.57;;
66272;SDS011;58450;52.150;4.466;2023-04-05T04:18:47;12.27;;;6.78;;
66272;SDS011;58450;52.150;4.466;2023-04-05T04:21:20;11.60;;;6.10;;
66272;SDS011;58450;52.150;4.466;2023-04-05T04:23:49;13.95;;;7.15;;
66272;SDS011;58450;52.150;4.466;2023-04-05T04:26:17;11.38;;;6.47;;
66272;SDS011;58450;52.150;4.466;2023-04-05T04:28:51;11.07;;;6.70;;
66272;SDS011;58450;52.150;4.466;2023-04-05T04:31:19;10.50;;;6.18;;
66272;SDS011;58450;52.150;4.466;2023-04-05T04:33:48;11.77;;;6.75;;
66272;SDS011;58450;52.150;4.466;2023-04-05T04:36:16;10.88;;;6.53;;
66272;SDS011;58450;52.150;4.466;2023-04-05T04:39:01;13.95;;;7.03;;
66272;SDS011;58450;52.150;4.466;2023-04-05T04:41:30;12.77;;;6.45;;
66272;SDS011;58450;52.150;4.466;2023-04-05T04:44:00;12.00;;;6.15;;
66272;SDS011;58450;52.150;4.466;2023-04-05T04:46:29;11.40;;;6.25;;
66272;SDS011;58450;52.150;4.466;2023-04-05T04:49:07;11.13;;;6.10;;
66272;SDS011;58450;52.150;4.466;2023-04-05T04:51:36;12.13;;;6.75;;
66272;SDS011;58450;52.150;4.466;2023-04-05T04:54:05;12.68;;;6.82;;
66272;SDS011;58450;52.150;4.466;2023-04-05T04:56:33;11.75;;;6.88;;
66272;SDS011;58450;52.150;4.466;2023-04-05T04:59:00;11.82;;;6.82;;
66272;SDS011;58450;52.150;4.466;2023-04-05T05:01:28;11.98;;;6.65;;
66272;SDS011;58450;52.150;4.466;2023-04-05T05:03:56;11.93;;;6.75;;
66272;SDS011;58450;52.150;4.466;2023-04-05T05:06:23;13.20;;;6.70;;
66272;SDS011;58450;52.150;4.466;2023-04-05T05:08:52;12.00;;;7.15;;
66272;SDS011;58450;52.150;4.466;2023-04-05T05:11:20;12.60;;;6.80;;
66272;SDS011;58450;52.150;4.466;2023-04-05T05:13:48;13.73;;;7.60;;
66272;SDS011;58450;52.150;4.466;2023-04-05T05:16:15;12.25;;;7.00;;
66272;SDS011;58450;52.150;4.466;2023-04-05T05:18:45;11.27;;;6.65;;
66272;SDS011;58450;52.150;4.466;2023-04-05T05:21:13;13.75;;;7.30;;
66272;SDS011;58450;52.150;4.466;2023-04-05T05:23:40;12.88;;;6.53;;
66272;SDS011;58450;52.150;4.466;2023-04-05T05:26:08;12.75;;;6.95;;
66272;SDS011;58450;52.150;4.466;2023-04-05T05:28:39;11.18;;;6.38;;
66272;SDS011;58450;52.150;4.466;2023-04-05T05:31:06;12.65;;;6.88;;
66272;SDS011;58450;52.150;4.466;2023-04-05T05:33:34;12.23;;;7.22;;
66272;SDS011;58450;52.150;4.466;2023-04-05T05:36:01;13.38;;;7.35;;
66272;SDS011;58450;52.150;4.466;2023-04-05T05:38:29;15.45;;;7.45;;
66272;SDS011;58450;52.150;4.466;2023-04-05T05:40:56;13.82;;;7.38;;
66272;SDS011;58450;52.150;4.466;2023-04-05T05:43:24;13.23;;;7.40;;
66272;SDS011;58450;52.150;4.466;2023-04-05T05:45:53;12.35;;;7.13;;
66272;SDS011;58450;52.150;4.466;2023-04-05T05:48:20;14.02;;;7.30;;
66272;SDS011;58450;52.150;4.466;2023-04-05T05:50:48;11.77;;;6.95;;
66272;SDS011;58450;52.150;4.466;2023-04-05T05:53:15;12.95;;;7.18;;
66272;SDS011;58450;52.150;4.466;2023-04-05T05:55:43;13.68;;;7.20;;
66272;SDS011;58450;52.150;4.466;2023-04-05T05:58:11;13.68;;;7.75;;
66272;SDS011;58450;52.150;4.466;2023-04-05T06:00:38;13.25;;;7.75;;
66272;SDS011;58450;52.150;4.466;2023-04-05T06:03:07;14.07;;;7.60;;
66272;SDS011;58450;52.150;4.466;2023-04-05T06:05:35;13.93;;;7.32;;
66272;SDS011;58450;52.150;4.466;2023-04-05T06:08:03;13.32;;;7.25;;
66272;SDS011;58450;52.150;4.466;2023-04-05T06:10:31;12.50;;;7.00;;
66272;SDS011;58450;52.150;4.466;2023-04-05T06:12:58;13.00;;;7.53;;
66272;SDS011;58450;52.150;4.466;2023-04-05T06:15:26;12.30;;;7.30;;
66272;SDS011;58450;52.150;4.466;2023-04-05T06:17:53;12.00;;;7.43;;
66272;SDS011;58450;52.150;4.466;2023-04-05T06:20:22;12.48;;;7.32;;
66272;SDS011;58450;52.150;4.466;2023-04-05T06:22:50;11.80;;;7.25;;
66272;SDS011;58450;52.150;4.466;2023-04-05T06:25:17;11.95;;;6.30;;
66272;SDS011;58450;52.150;4.466;2023-04-05T06:27:45;11.38;;;7.15;;
66272;SDS011;58450;52.150;4.466;2023-04-05T06:30:13;10.68;;;6.70;;
66272;SDS011;58450;52.150;4.466;2023-04-05T06:32:40;12.13;;;6.88;;
66272;SDS011;58450;52.150;4.466;2023-04-05T06:35:08;11.13;;;6.72;;
66272;SDS011;58450;52.150;4.466;2023-04-05T06:37:37;10.93;;;6.63;;
66272;SDS011;58450;52.150;4.466;2023-04-05T06:40:05;11.85;;;6.57;;
66272;SDS011;58450;52.150;4.466;2023-04-05T06:42:34;12.38;;;7.07;;
66272;SDS011;58450;52.150;4.466;2023-04-05T06:45:01;9.80;;;5.93;;
66272;SDS011;58450;52.150;4.466;2023-04-05T06:47:32;12.73;;;7.03;;
66272;SDS011;58450;52.150;4.466;2023-04-05T06:50:00;11.55;;;6.78;;
66272;SDS011;58450;52.150;4.466;2023-04-05T06:52:28;11.32;;;7.10;;
66272;SDS011;58450;52.150;4.466;2023-04-05T06:54:57;14.32;;;7.07;;
66272;SDS011;58450;52.150;4.466;2023-04-05T06:57:24;12.00;;;7.15;;
66272;SDS011;58450;52.150;4.466;2023-04-05T06:59:53;11.32;;;7.05;;
66272;SDS011;58450;52.150;4.466;2023-04-05T07:02:20;11.50;;;6.80;;
66272;SDS011;58450;52.150;4.466;2023-04-05T07:04:48;12.65;;;6.97;;
66272;SDS011;58450;52.150;4.466;2023-04-05T07:07:15;10.57;;;6.70;;
66272;SDS011;58450;52.150;4.466;2023-04-05T07:09:43;10.55;;;6.80;;
66272;SDS011;58450;52.150;4.466;2023-04-05T07:12:12;10.40;;;6.75;;
66272;SDS011;58450;52.150;4.466;2023-04-05T07:14:40;11.40;;;5.90;;
66272;SDS011;58450;52.150;4.466;2023-04-05T07:17:07;9.57;;;6.47;;
66272;SDS011;58450;52.150;4.466;2023-04-05T07:19:35;10.85;;;6.68;;
66272;SDS011;58450;52.150;4.466;2023-04-05T07:22:02;10.63;;;6.85;;
66272;SDS011;58450;52.150;4.466;2023-04-05T07:24:30;10.27;;;6.28;;
66272;SDS011;58450;52.150;4.466;2023-04-05T07:26:57;9.52;;;5.78;;
66272;SDS011;58450;52.150;4.466;2023-04-05T07:29:26;10.48;;;6.03;;
66272;SDS011;58450;52.150;4.466;2023-04-05T07:31:53;9.57;;;6.15;;
66272;SDS011;58450;52.150;4.466;2023-04-05T07:34:21;7.95;;;5.20;;
66272;SDS011;58450;52.150;4.466;2023-04-05T07:36:49;10.23;;;6.18;;
66272;SDS011;58450;52.150;4.466;2023-04-05T07:39:16;9.82;;;6.38;;
66272;SDS011;58450;52.150;4.466;2023-04-05T07:41:44;12.00;;;6.45;;
66272;SDS011;58450;52.150;4.466;2023-04-05T07:44:12;9.45;;;5.95;;
66272;SDS011;58450;52.150;4.466;2023-04-05T07:46:41;11.13;;;6.35;;
66272;SDS011;58450;52.150;4.466;2023-04-05T07:49:09;10.60;;;6.47;;
66272;SDS011;58450;52.150;4.466;2023-04-05T07:51:37;11.38;;;6.70;;
66272;SDS011;58450;52.150;4.466;2023-04-05T07:54:04;13.15;;;6.78;;
66272;SDS011;58450;52.150;4.466;2023-04-05T07:56:32;9.65;;;5.82;;
66272;SDS011;58450;52.150;4.466;2023-04-05T07:58:59;9.80;;;5.90;;
66272;SDS011;58450;52.150;4.466;2023-04-05T08:01:27;12.48;;;6.28;;
66272;SDS011;58450;52.150;4.466;2023-04-05T08:03:57;9.95;;;6.30;;
66272;SDS011;58450;52.150;4.466;2023-04-05T08:06:24;11.40;;;6.55;;
66272;SDS011;58450;52.150;4.466;2023-04-05T08:08:52;10.63;;;6.57;;
66272;SDS011;58450;52.150;4.466;2023-04-05T08:11:20;11.23;;;6.47;;
66272;SDS011;58450;52.150;4.466;2023-04-05T08:13:47;10.82;;;6.00;;
66272;SDS011;58450;52.150;4.466;2023-04-05T08:16:15;7.70;;;5.35;;
66272;SDS011;58450;52.150;4.466;2023-04-05T08:18:43;9.68;;;5.40;;
66272;SDS011;58450;52.150;4.466;2023-04-05T08:21:12;9.50;;;6.00;;
66272;SDS011;58450;52.150;4.466;2023-04-05T08:23:39;9.93;;;6.00;;
66272;SDS011;58450;52.150;4.466;2023-04-05T08:26:07;10.45;;;5.82;;
66272;SDS011;58450;52.150;4.466;2023-04-05T08:28:35;7.15;;;4.88;;
66272;SDS011;58450;52.150;4.466;2023-04-05T08:31:02;10.48;;;6.35;;
66272;SDS011;58450;52.150;4.466;2023-04-05T08:33:30;9.75;;;5.45;;
66272;SDS011;58450;52.150;4.466;2023-04-05T08:36:02;9.70;;;5.68;;
66272;SDS011;58450;52.150;4.466;2023-04-05T08:38:32;8.43;;;5.65;;
66272;SDS011;58450;52.150;4.466;2023-04-05T08:41:05;10.07;;;5.30;;
66272;SDS011;58450;52.150;4.466;2023-04-05T08:43:43;9.18;;;5.30;;
66272;SDS011;58450;52.150;4.466;2023-04-05T08:46:22;10.35;;;6.05;;
66272;SDS011;58450;52.150;4.466;2023-04-05T08:48:51;11.02;;;6.22;;
66272;SDS011;58450;52.150;4.466;2023-04-05T08:51:19;8.10;;;5.53;;
66272;SDS011;58450;52.150;4.466;2023-04-05T08:53:48;9.80;;;5.68;;
66272;SDS011;58450;52.150;4.466;2023-04-05T08:56:18;8.68;;;5.32;;
66272;SDS011;58450;52.150;4.466;2023-04-05T08:58:51;10.07;;;6.15;;
66272;SDS011;58450;52.150;4.466;2023-04-05T09:01:28;9.90;;;5.70;;
66272;SDS011;58450;52.150;4.466;2023-04-05T09:03:59;10.23;;;5.80;;
66272;SDS011;58450;52.150;4.466;2023-04-05T09:06:31;10.85;;;6.20;;
66272;SDS011;58450;52.150;4.466;2023-04-05T09:09:01;12.02;;;6.00;;
66272;SDS011;58450;52.150;4.466;2023-04-05T09:11:33;10.13;;;5.95;;
66272;SDS011;58450;52.150;4.466;2023-04-05T09:14:01;11.45;;;6.93;;
66272;SDS011;58450;52.150;4.466;2023-04-05T09:16:30;10.38;;;6.22;;
66272;SDS011;58450;52.150;4.466;2023-04-05T09:19:00;10.85;;;6.68;;
66272;SDS011;58450;52.150;4.466;2023-04-05T09:21:27;12.23;;;6.35;;
66272;SDS011;58450;52.150;4.466;2023-04-05T09:23:55;10.57;;;6.32;;
66272;SDS011;58450;52.150;4.466;2023-04-05T09:26:24;10.85;;;6.68;;
66272;SDS011;58450;52.150;4.466;2023-04-05T09:28:52;10.60;;;6.40;;
66272;SDS011;58450;52.150;4.466;2023-04-05T09:31:28;12.02;;;6.43;;
66272;SDS011;58450;52.150;4.466;2023-04-05T09:33:58;11.60;;;6.63;;
66272;SDS011;58450;52.150;4.466;2023-04-05T09:36:29;12.63;;;6.90;;
66272;SDS011;58450;52.150;4.466;2023-04-05T09:39:05;11.23;;;5.88;;
66272;SDS011;58450;52.150;4.466;2023-04-05T09:41:35;8.85;;;5.35;;
66272;SDS011;58450;52.150;4.466;2023-04-05T09:44:04;9.35;;;5.32;;
66272;SDS011;58450;52.150;4.466;2023-04-05T09:46:32;10.38;;;6.55;;
66272;SDS011;58450;52.150;4.466;2023-04-05T09:49:02;10.50;;;5.63;;
66272;SDS011;58450;52.150;4.466;2023-04-05T09:51:32;9.05;;;5.25;;
66272;SDS011;58450;52.150;4.466;2023-04-05T09:54:02;9.48;;;5.95;;
66272;SDS011;58450;52.150;4.466;2023-04-05T09:56:32;9.60;;;5.55;;
66272;SDS011;58450;52.150;4.466;2023-04-05T09:59:05;7.90;;;4.90;;
66272;SDS011;58450;52.150;4.466;2023-04-05T10:01:35;11.38;;;6.13;;
66272;SDS011;58450;52.150;4.466;2023-04-05T10:04:03;9.50;;;5.75;;
66272;SDS011;58450;52.150;4.466;2023-04-05T10:06:34;10.60;;;5.93;;
66272;SDS011;58450;52.150;4.466;2023-04-05T10:09:04;9.07;;;5.18;;
66272;SDS011;58450;52.150;4.466;2023-04-05T10:11:33;8.25;;;4.65;;
66272;SDS011;58450;52.150;4.466;2023-04-05T10:14:04;9.25;;;5.05;;
66272;SDS011;58450;52.150;4.466;2023-04-05T10:16:36;8.95;;;5.22;;
66272;SDS011;58450;52.150;4.466;2023-04-05T10:19:13;9.65;;;4.97;;
66272;SDS011;58450;52.150;4.466;2023-04-05T10:21:52;8.63;;;5.05;;
66272;SDS011;58450;52.150;4.466;2023-04-05T10:24:28;7.93;;;4.80;;
66272;SDS011;58450;52.150;4.466;2023-04-05T10:27:08;8.52;;;4.90;;
66272;SDS011;58450;52.150;4.466;2023-04-05T10:30:00;9.65;;;5.30;;
66272;SDS011;58450;52.150;4.466;2023-04-05T10:32:36;9.57;;;4.97;;
66272;SDS011;58450;52.150;4.466;2023-04-05T10:35:22;8.52;;;4.82;;
66272;SDS011;58450;52.150;4.466;2023-04-05T10:38:01;8.27;;;4.80;;
66272;SDS011;58450;52.150;4.466;2023-04-05T10:40:44;8.25;;;4.60;;
66272;SDS011;58450;52.150;4.466;2023-04-05T10:43:16;8.15;;;4.60;;
66272;SDS011;58450;52.150;4.466;2023-04-05T10:45:50;7.95;;;4.63;;
66272;SDS011;58450;52.150;4.466;2023-04-05T10:48:23;9.90;;;5.10;;
66272;SDS011;58450;52.150;4.466;2023-04-05T10:51:03;7.88;;;4.78;;
66272;SDS011;58450;52.150;4.466;2023-04-05T10:53:31;9.15;;;4.97;;
66272;SDS011;58450;52.150;4.466;2023-04-05T10:56:00;9.27;;;5.10;;
66272;SDS011;58450;52.150;4.466;2023-04-05T10:58:29;8.57;;;5.18;;
66272;SDS011;58450;52.150;4.466;2023-04-05T11:00:58;9.20;;;4.90;;
66272;SDS011;58450;52.150;4.466;2023-04-05T11:03:41;7.20;;;4.50;;
66272;SDS011;58450;52.150;4.466;2023-04-05T11:06:19;7.63;;;4.60;;
66272;SDS011;58450;52.150;4.466;2023-04-05T11:08:58;10.15;;;5.28;;
66272;SDS011;58450;52.150;4.466;2023-04-05T11:11:37;8.13;;;4.88;;
66272;SDS011;58450;52.150;4.466;2023-04-05T11:14:17;7.22;;;4.50;;
66272;SDS011;58450;52.150;4.466;2023-04-05T11:16:47;7.00;;;4.28;;
66272;SDS011;58450;52.150;4.466;2023-04-05T11:19:19;7.28;;;4.10;;
66272;SDS011;58450;52.150;4.466;2023-04-05T11:21:47;7.05;;;4.35;;
66272;SDS011;58450;52.150;4.466;2023-04-05T11:24:46;10.02;;;5.80;;
66272;SDS011;58450;52.150;4.466;2023-04-05T11:27:25;8.95;;;5.82;;
66272;SDS011;58450;52.150;4.466;2023-04-05T11:29:56;10.48;;;6.20;;
66272;SDS011;58450;52.150;4.466;2023-04-05T11:32:36;8.55;;;5.55;;
66272;SDS011;58450;52.150;4.466;2023-04-05T11:35:06;9.50;;;5.18;;
66272;SDS011;58450;52.150;4.466;2023-04-05T11:37:52;7.82;;;4.88;;
66272;SDS011;58450;52.150;4.466;2023-04-05T11:40:27;8.85;;;5.22;;
66272;SDS011;58450;52.150;4.466;2023-04-05T11:43:00;7.93;;;4.95;;
66272;SDS011;58450;52.150;4.466;2023-04-05T11:45:32;8.68;;;4.43;;
66272;SDS011;58450;52.150;4.466;2023-04-05T11:48:03;8.48;;;5.57;;
66272;SDS011;58450;52.150;4.466;2023-04-05T11:50:32;8.45;;;5.28;;
66272;SDS011;58450;52.150;4.466;2023-04-05T11:53:08;10.98;;;5.97;;
66272;SDS011;58450;52.150;4.466;2023-04-05T11:55:41;9.75;;;5.55;;
66272;SDS011;58450;52.150;4.466;2023-04-05T11:58:11;9.50;;;5.03;;
66272;SDS011;58450;52.150;4.466;2023-04-05T12:00:42;10.85;;;6.43;;
66272;SDS011;58450;52.150;4.466;2023-04-05T12:03:11;10.13;;;5.45;;
66272;SDS011;58450;52.150;4.466;2023-04-05T12:05:46;8.55;;;5.38;;
66272;SDS011;58450;52.150;4.466;2023-04-05T12:08:16;8.75;;;5.47;;
66272;SDS011;58450;52.150;4.466;2023-04-05T12:10:44;9.18;;;6.07;;
66272;SDS011;58450;52.150;4.466;2023-04-05T12:13:26;9.98;;;6.35;;
66272;SDS011;58450;52.150;4.466;2023-04-05T12:15:57;10.88;;;6.70;;
66272;SDS011;58450;52.150;4.466;2023-04-05T12:18:26;8.65;;;5.55;;
66272;SDS011;58450;52.150;4.466;2023-04-05T12:20:57;6.75;;;4.55;;
66272;SDS011;58450;52.150;4.466;2023-04-05T12:23:25;8.90;;;4.95;;
66272;SDS011;58450;52.150;4.466;2023-04-05T12:25:53;8.93;;;5.60;;
66272;SDS011;58450;52.150;4.466;2023-04-05T12:28:22;11.30;;;7.32;;
66272;SDS011;58450;52.150;4.466;2023-04-05T12:30:50;13.63;;;9.48;;
66272;SDS011;58450;52.150;4.466;2023-04-05T12:33:26;13.63;;;7.78;;
66272;SDS011;58450;52.150;4.466;2023-04-05T12:35:55;13.15;;;8.95;;
66272;SDS011;58450;52.150;4.466;2023-04-05T12:38:24;14.40;;;9.15;;
66272;SDS011;58450;52.150;4.466;2023-04-05T12:40:53;15.68;;;9.80;;
66272;SDS011;58450;52.150;4.466;2023-04-05T12:43:20;16.30;;;10.90;;
66272;SDS011;58450;52.150;4.466;2023-04-05T12:45:49;14.70;;;9.77;;
66272;SDS011;58450;52.150;4.466;2023-04-05T12:48:22;16.92;;;10.05;;
66272;SDS011;58450;52.150;4.466;2023-04-05T12:50:53;13.63;;;8.68;;
66272;SDS011;58450;52.150;4.466;2023-04-05T12:53:21;13.70;;;9.20;;
66272;SDS011;58450;52.150;4.466;2023-04-05T12:55:54;14.60;;;9.35;;
66272;SDS011;58450;52.150;4.466;2023-04-05T12:58:30;13.73;;;9.13;;
66272;SDS011;58450;52.150;4.466;2023-04-05T13:01:00;16.67;;;10.90;;
66272;SDS011;58450;52.150;4.466;2023-04-05T13:03:28;16.95;;;10.90;;
66272;SDS011;58450;52.150;4.466;2023-04-05T13:05:57;15.80;;;10.63;;
66272;SDS011;58450;52.150;4.466;2023-04-05T13:08:25;16.48;;;11.02;;
66272;SDS011;58450;52.150;4.466;2023-04-05T13:10:52;17.17;;;11.00;;
66272;SDS011;58450;52.150;4.466;2023-04-05T13:13:20;15.88;;;10.32;;
66272;SDS011;58450;52.150;4.466;2023-04-05T13:15:48;15.23;;;9.40;;
66272;SDS011;58450;52.150;4.466;2023-04-05T13:18:15;14.93;;;9.30;;
66272;SDS011;58450;52.150;4.466;2023-04-05T13:20:43;14.25;;;9.18;;
66272;SDS011;58450;52.150;4.466;2023-04-05T13:23:12;12.88;;;8.50;;
66272;SDS011;58450;52.150;4.466;2023-04-05T13:25:40;16.45;;;10.50;;
66272;SDS011;58450;52.150;4.466;2023-04-05T13:28:10;16.73;;;10.48;;
66272;SDS011;58450;52.150;4.466;2023-04-05T13:30:37;15.48;;;10.68;;
66272;SDS011;58450;52.150;4.466;2023-04-05T13:33:05;17.45;;;10.68;;
66272;SDS011;58450;52.150;4.466;2023-04-05T13:35:33;19.40;;;10.60;;
66272;SDS011;58450;52.150;4.466;2023-04-05T13:38:01;16.40;;;10.70;;
66272;SDS011;58450;52.150;4.466;2023-04-05T13:40:29;16.73;;;10.52;;
66272;SDS011;58450;52.150;4.466;2023-04-05T13:42:57;19.95;;;11.07;;
66272;SDS011;58450;52.150;4.466;2023-04-05T13:45:25;17.23;;;11.68;;
66272;SDS011;58450;52.150;4.466;2023-04-05T13:47:53;18.60;;;12.25;;
66272;SDS011;58450;52.150;4.466;2023-04-05T13:50:21;19.65;;;11.95;;
66272;SDS011;58450;52.150;4.466;2023-04-05T13:52:48;15.95;;;9.95;;
66272;SDS011;58450;52.150;4.466;2023-04-05T13:55:16;14.68;;;9.82;;
66272;SDS011;58450;52.150;4.466;2023-04-05T13:57:45;17.75;;;11.18;;
66272;SDS011;58450;52.150;4.466;2023-04-05T14:00:13;18.65;;;11.35;;
66272;SDS011;58450;52.150;4.466;2023-04-05T14:02:41;20.27;;;11.52;;
66272;SDS011;58450;52.150;4.466;2023-04-05T14:05:09;19.75;;;11.25;;
66272;SDS011;58450;52.150;4.466;2023-04-05T14:07:37;17.45;;;11.35;;
66272;SDS011;58450;52.150;4.466;2023-04-05T14:10:05;19.15;;;11.85;;
66272;SDS011;58450;52.150;4.466;2023-04-05T14:12:36;19.05;;;11.82;;
66272;SDS011;58450;52.150;4.466;2023-04-05T14:15:06;19.92;;;11.02;;
66272;SDS011;58450;52.150;4.466;2023-04-05T14:17:34;19.75;;;11.13;;
66272;SDS011;58450;52.150;4.466;2023-04-05T14:20:01;19.38;;;11.35;;
66272;SDS011;58450;52.150;4.466;2023-04-05T14:22:29;18.05;;;11.23;;
66272;SDS011;58450;52.150;4.466;2023-04-05T14:24:57;17.05;;;9.60;;
66272;SDS011;58450;52.150;4.466;2023-04-05T14:27:24;16.60;;;10.05;;
66272;SDS011;58450;52.150;4.466;2023-04-05T14:29:53;15.82;;;9.65;;
66272;SDS011;58450;52.150;4.466;2023-04-05T14:32:23;17.27;;;9.88;;
66272;SDS011;58450;52.150;4.466;2023-04-05T14:34:51;16.15;;;11.13;;
66272;SDS011;58450;52.150;4.466;2023-04-05T14:37:18;18.48;;;11.52;;
66272;SDS011;58450;52.150;4.466;2023-04-05T14:39:46;18.50;;;11.30;;
66272;SDS011;58450;52.150;4.466;2023-04-05T14:42:14;20.05;;;11.55;;
66272;SDS011;58450;52.150;4.466;2023-04-05T14:44:41;19.90;;;13.00;;
66272;SDS011;58450;52.150;4.466;2023-04-05T14:47:08;20.17;;;11.98;;
66272;SDS011;58450;52.150;4.466;2023-04-05T14:49:37;18.05;;;11.27;;
66272;SDS011;58450;52.150;4.466;2023-04-05T14:52:05;22.23;;;13.40;;
66272;SDS011;58450;52.150;4.466;2023-04-05T14:54:32;18.65;;;12.13;;